sensor_id;sensor_type;location;lat;lon;timestamp;temperature;humidity
1359;DHT22;673;48.098;14.422;2023-05-19T00:02:16;8.80;99.90
1359;DHT22;673;48.098;14.422;2023-05-19T00:04:45;8.80;99.90
1359;DHT22;673;48.098;14.422;2023-05-19T00:07:17;8.80;99.90
1359;DHT22;673;48.098;14.422;2023-05-19T00:09:47;8.80;99.90
1359;DHT22;673;48.098;14.422;2023-05-19T00:12:14;8.80;99.90
1359;DHT22;673;48.098;14.422;2023-05-19T00:14:42;8.80;99.90
1359;DHT22;673;48.098;14.422;2023-05-19T00:17:09;8.80;99.90
1359;DHT22;673;48.098;14.422;2023-05-19T00:19:36;8.80;99.90
1359;DHT22;673;48.098;14.422;2023-05-19T00:22:03;8.80;99.90
1359;DHT22;673;48.098;14.422;2023-05-19T00:24:30;8.80;99.90
1359;DHT22;673;48.098;14.422;2023-05-19T00:26:59;8.80;99.90
1359;DHT22;673;48.098;14.422;2023-05-19T00:29:26;8.80;99.90
1359;DHT22;673;48.098;14.422;2023-05-19T00:31:53;8.80;99.90
1359;DHT22;673;48.098;14.422;2023-05-19T00:34:20;8.70;99.90
1359;DHT22;673;48.098;14.422;2023-05-19T00:36:47;8.70;99.90
1359;DHT22;673;48.098;14.422;2023-05-19T00:39:14;8.60;99.90
1359;DHT22;673;48.098;14.422;2023-05-19T00:41:40;8.60;99.90
1359;DHT22;673;48.098;14.422;2023-05-19T00:44:09;8.60;99.90
1359;DHT22;673;48.098;14.422;2023-05-19T00:46:36;8.70;99.90
1359;DHT22;673;48.098;14.422;2023-05-19T00:49:03;8.70;99.90
1359;DHT22;673;48.098;14.422;2023-05-19T00:51:30;8.70;99.90
1359;DHT22;673;48.098;14.422;2023-05-19T00:53:57;8.60;99.90
1359;DHT22;673;48.098;14.422;2023-05-19T00:56:24;8.60;99.90
1359;DHT22;673;48.098;14.422;2023-05-19T00:58:52;8.60;99.90
1359;DHT22;673;48.098;14.422;2023-05-19T01:01:21;8.60;99.90
1359;DHT22;673;48.098;14.422;2023-05-19T01:03:51;8.50;99.90
1359;DHT22;673;48.098;14.422;2023-05-19T01:06:18;8.50;99.90
1359;DHT22;673;48.098;14.422;2023-05-19T01:08:46;8.50;99.90
1359;DHT22;673;48.098;14.422;2023-05-19T01:11:13;8.50;99.90
1359;DHT22;673;48.098;14.422;2023-05-19T01:13:40;8.40;99.90
1359;DHT22;673;48.098;14.422;2023-05-19T01:16:11;8.40;99.90
1359;DHT22;673;48.098;14.422;2023-05-19T01:18:56;8.40;99.90
1359;DHT22;673;48.098;14.422;2023-05-19T01:21:56;8.30;99.90
1359;DHT22;673;48.098;14.422;2023-05-19T01:27:52;8.40;99.90
1359;DHT22;673;48.098;14.422;2023-05-19T01:30:28;8.50;99.90
1359;DHT22;673;48.098;14.422;2023-05-19T01:32:58;8.40;99.90
1359;DHT22;673;48.098;14.422;2023-05-19T01:35:26;8.40;99.90
1359;DHT22;673;48.098;14.422;2023-05-19T01:37:55;8.40;99.90
1359;DHT22;673;48.098;14.422;2023-05-19T01:40:23;8.40;99.90
1359;DHT22;673;48.098;14.422;2023-05-19T01:42:53;8.30;99.90
1359;DHT22;673;48.098;14.422;2023-05-19T01:45:21;8.30;99.90
1359;DHT22;673;48.098;14.422;2023-05-19T01:47:52;8.30;99.90
1359;DHT22;673;48.098;14.422;2023-05-19T01:50:19;8.30;99.90
1359;DHT22;673;48.098;14.422;2023-05-19T01:52:47;8.30;99.90
1359;DHT22;673;48.098;14.422;2023-05-19T01:55:13;8.30;99.90
1359;DHT22;673;48.098;14.422;2023-05-19T01:57:46;8.30;99.90
1359;DHT22;673;48.098;14.422;2023-05-19T02:00:23;8.30;99.90
1359;DHT22;673;48.098;14.422;2023-05-19T02:02:58;8.30;99.90
1359;DHT22;673;48.098;14.422;2023-05-19T02:05:35;8.30;99.90
1359;DHT22;673;48.098;14.422;2023-05-19T02:08:10;8.20;99.90
1359;DHT22;673;48.098;14.422;2023-05-19T02:10:40;8.20;99.90
1359;DHT22;673;48.098;14.422;2023-05-19T02:13:10;8.20;99.90
1359;DHT22;673;48.098;14.422;2023-05-19T02:15:40;8.10;99.90
1359;DHT22;673;48.098;14.422;2023-05-19T02:18:10;8.10;99.90
1359;DHT22;673;48.098;14.422;2023-05-19T02:20:38;8.20;99.90
1359;DHT22;673;48.098;14.422;2023-05-19T02:23:07;8.20;99.90
1359;DHT22;673;48.098;14.422;2023-05-19T02:25:33;8.20;99.90
1359;DHT22;673;48.098;14.422;2023-05-19T02:28:00;8.20;99.90
1359;DHT22;673;48.098;14.422;2023-05-19T02:30:27;8.20;99.90
1359;DHT22;673;48.098;14.422;2023-05-19T02:32:56;8.30;99.90
1359;DHT22;673;48.098;14.422;2023-05-19T02:35:24;8.20;99.90
1359;DHT22;673;48.098;14.422;2023-05-19T02:37:52;8.30;99.90
1359;DHT22;673;48.098;14.422;2023-05-19T02:40:19;8.30;99.90
1359;DHT22;673;48.098;14.422;2023-05-19T02:42:47;8.30;99.90
1359;DHT22;673;48.098;14.422;2023-05-19T02:45:14;8.20;99.90
1359;DHT22;673;48.098;14.422;2023-05-19T02:47:41;8.20;99.90
1359;DHT22;673;48.098;14.422;2023-05-19T02:50:08;8.30;99.90
1359;DHT22;673;48.098;14.422;2023-05-19T02:52:36;8.30;99.90
1359;DHT22;673;48.098;14.422;2023-05-19T02:55:04;8.30;99.90
1359;DHT22;673;48.098;14.422;2023-05-19T02:57:33;8.30;99.90
1359;DHT22;673;48.098;14.422;2023-05-19T03:00:00;8.30;99.90
1359;DHT22;673;48.098;14.422;2023-05-19T03:02:27;8.20;99.90
1359;DHT22;673;48.098;14.422;2023-05-19T03:04:54;8.20;99.90
1359;DHT22;673;48.098;14.422;2023-05-19T03:07:21;8.20;99.90
1359;DHT22;673;48.098;14.422;2023-05-19T03:09:51;8.20;99.90
1359;DHT22;673;48.098;14.422;2023-05-19T03:12:18;8.20;99.90
1359;DHT22;673;48.098;14.422;2023-05-19T03:14:46;8.20;99.90
1359;DHT22;673;48.098;14.422;2023-05-19T03:17:13;8.20;99.90
1359;DHT22;673;48.098;14.422;2023-05-19T03:19:40;8.20;99.90
1359;DHT22;673;48.098;14.422;2023-05-19T03:22:07;8.30;99.90
1359;DHT22;673;48.098;14.422;2023-05-19T03:24:34;8.20;99.90
1359;DHT22;673;48.098;14.422;2023-05-19T03:27:03;8.20;99.90
1359;DHT22;673;48.098;14.422;2023-05-19T03:29:30;8.20;99.90
1359;DHT22;673;48.098;14.422;2023-05-19T03:31:57;8.10;99.90
1359;DHT22;673;48.098;14.422;2023-05-19T03:34:25;8.10;99.90
1359;DHT22;673;48.098;14.422;2023-05-19T03:36:51;8.10;99.90
1359;DHT22;673;48.098;14.422;2023-05-19T03:39:18;8.10;99.90
1359;DHT22;673;48.098;14.422;2023-05-19T03:41:45;8.10;99.90
1359;DHT22;673;48.098;14.422;2023-05-19T03:44:14;8.10;99.90
1359;DHT22;673;48.098;14.422;2023-05-19T03:46:41;8.10;99.90
1359;DHT22;673;48.098;14.422;2023-05-19T03:49:07;8.10;99.90
1359;DHT22;673;48.098;14.422;2023-05-19T03:51:35;8.20;99.90
1359;DHT22;673;48.098;14.422;2023-05-19T03:54:03;8.10;99.90
1359;DHT22;673;48.098;14.422;2023-05-19T03:56:30;8.10;99.90
1359;DHT22;673;48.098;14.422;2023-05-19T03:58:57;8.20;99.90
1359;DHT22;673;48.098;14.422;2023-05-19T04:01:26;8.30;99.90
1359;DHT22;673;48.098;14.422;2023-05-19T04:03:53;8.30;99.90
1359;DHT22;673;48.098;14.422;2023-05-19T04:06:19;8.20;99.90
1359;DHT22;673;48.098;14.422;2023-05-19T04:08:47;8.20;99.90
1359;DHT22;673;48.098;14.422;2023-05-19T04:11:14;8.30;99.90
1359;DHT22;673;48.098;14.422;2023-05-19T04:13:41;8.30;99.90
1359;DHT22;673;48.098;14.422;2023-05-19T04:16:08;8.20;99.90
1359;DHT22;673;48.098;14.422;2023-05-19T04:18:37;8.30;99.90
1359;DHT22;673;48.098;14.422;2023-05-19T04:21:04;8.30;99.90
1359;DHT22;673;48.098;14.422;2023-05-19T04:23:33;8.30;99.90
1359;DHT22;673;48.098;14.422;2023-05-19T04:26:00;8.20;99.90
1359;DHT22;673;48.098;14.422;2023-05-19T04:28:28;8.20;99.90
1359;DHT22;673;48.098;14.422;2023-05-19T04:30:55;8.30;99.90
1359;DHT22;673;48.098;14.422;2023-05-19T04:33:23;8.30;99.90
1359;DHT22;673;48.098;14.422;2023-05-19T04:35:51;8.40;99.90
1359;DHT22;673;48.098;14.422;2023-05-19T04:38:18;8.50;99.90
1359;DHT22;673;48.098;14.422;2023-05-19T04:40:46;8.50;99.90
1359;DHT22;673;48.098;14.422;2023-05-19T04:43:14;8.50;99.90
1359;DHT22;673;48.098;14.422;2023-05-19T04:45:42;8.60;99.90
1359;DHT22;673;48.098;14.422;2023-05-19T04:48:09;8.70;99.90
1359;DHT22;673;48.098;14.422;2023-05-19T04:50:36;8.80;99.90
1359;DHT22;673;48.098;14.422;2023-05-19T04:53:08;8.90;99.90
1359;DHT22;673;48.098;14.422;2023-05-19T04:55:36;9.00;99.90
1359;DHT22;673;48.098;14.422;2023-05-19T04:58:03;9.10;99.90
1359;DHT22;673;48.098;14.422;2023-05-19T05:00:31;9.10;99.90
1359;DHT22;673;48.098;14.422;2023-05-19T05:03:00;9.20;99.90
1359;DHT22;673;48.098;14.422;2023-05-19T05:05:29;9.30;99.90
1359;DHT22;673;48.098;14.422;2023-05-19T05:07:57;9.30;99.90
1359;DHT22;673;48.098;14.422;2023-05-19T05:10:25;9.50;99.90
1359;DHT22;673;48.098;14.422;2023-05-19T05:12:53;9.50;99.90
1359;DHT22;673;48.098;14.422;2023-05-19T05:15:21;9.50;99.90
1359;DHT22;673;48.098;14.422;2023-05-19T05:17:49;9.50;99.90
1359;DHT22;673;48.098;14.422;2023-05-19T05:20:16;9.50;99.90
1359;DHT22;673;48.098;14.422;2023-05-19T05:22:45;9.60;99.90
1359;DHT22;673;48.098;14.422;2023-05-19T05:25:13;9.70;99.90
1359;DHT22;673;48.098;14.422;2023-05-19T05:27:42;9.70;99.90
1359;DHT22;673;48.098;14.422;2023-05-19T05:30:09;9.80;99.90
1359;DHT22;673;48.098;14.422;2023-05-19T05:32:36;9.80;99.90
1359;DHT22;673;48.098;14.422;2023-05-19T05:35:04;9.80;99.90
1359;DHT22;673;48.098;14.422;2023-05-19T05:37:31;9.90;99.90
1359;DHT22;673;48.098;14.422;2023-05-19T05:39:58;10.10;99.90
1359;DHT22;673;48.098;14.422;2023-05-19T05:42:25;10.00;99.90
1359;DHT22;673;48.098;14.422;2023-05-19T05:44:54;10.00;99.90
1359;DHT22;673;48.098;14.422;2023-05-19T05:47:21;10.20;99.90
1359;DHT22;673;48.098;14.422;2023-05-19T05:49:49;10.20;99.90
1359;DHT22;673;48.098;14.422;2023-05-19T05:52:17;10.30;99.90
1359;DHT22;673;48.098;14.422;2023-05-19T05:54:47;10.40;99.90
1359;DHT22;673;48.098;14.422;2023-05-19T05:57:14;10.40;99.90
1359;DHT22;673;48.098;14.422;2023-05-19T05:59:41;10.50;99.90
1359;DHT22;673;48.098;14.422;2023-05-19T06:02:11;10.40;99.90
1359;DHT22;673;48.098;14.422;2023-05-19T06:04:38;10.10;99.90
1359;DHT22;673;48.098;14.422;2023-05-19T06:07:05;10.10;99.90
1359;DHT22;673;48.098;14.422;2023-05-19T06:09:32;10.10;99.90
1359;DHT22;673;48.098;14.422;2023-05-19T06:11:59;10.00;99.90
1359;DHT22;673;48.098;14.422;2023-05-19T06:14:26;10.00;99.90
1359;DHT22;673;48.098;14.422;2023-05-19T06:16:53;10.00;99.90
1359;DHT22;673;48.098;14.422;2023-05-19T06:19:21;10.00;99.90
1359;DHT22;673;48.098;14.422;2023-05-19T06:21:49;10.10;99.90
1359;DHT22;673;48.098;14.422;2023-05-19T06:24:16;10.10;99.90
1359;DHT22;673;48.098;14.422;2023-05-19T06:26:43;10.20;99.90
1359;DHT22;673;48.098;14.422;2023-05-19T06:29:10;10.20;99.90
1359;DHT22;673;48.098;14.422;2023-05-19T06:31:37;10.30;99.90
1359;DHT22;673;48.098;14.422;2023-05-19T06:34:04;10.30;99.90
1359;DHT22;673;48.098;14.422;2023-05-19T06:36:33;10.20;99.90
1359;DHT22;673;48.098;14.422;2023-05-19T06:39:00;10.20;99.90
1359;DHT22;673;48.098;14.422;2023-05-19T06:41:27;10.40;99.90
1359;DHT22;673;48.098;14.422;2023-05-19T06:43:54;10.40;99.90
1359;DHT22;673;48.098;14.422;2023-05-19T06:46:21;10.50;99.90
1359;DHT22;673;48.098;14.422;2023-05-19T06:48:48;10.70;99.90
1359;DHT22;673;48.098;14.422;2023-05-19T06:51:15;10.90;99.90
1359;DHT22;673;48.098;14.422;2023-05-19T06:53:47;11.10;99.90
1359;DHT22;673;48.098;14.422;2023-05-19T06:56:14;11.10;99.90
1359;DHT22;673;48.098;14.422;2023-05-19T06:58:43;11.10;99.90
1359;DHT22;673;48.098;14.422;2023-05-19T07:01:10;11.10;99.90
1359;DHT22;673;48.098;14.422;2023-05-19T07:03:37;11.10;99.90
1359;DHT22;673;48.098;14.422;2023-05-19T07:06:04;11.20;99.90
1359;DHT22;673;48.098;14.422;2023-05-19T07:08:31;11.10;99.90
1359;DHT22;673;48.098;14.422;2023-05-19T07:11:00;10.90;99.90
1359;DHT22;673;48.098;14.422;2023-05-19T07:13:27;11.00;99.90
1359;DHT22;673;48.098;14.422;2023-05-19T07:15:54;11.10;99.90
1359;DHT22;673;48.098;14.422;2023-05-19T07:18:21;10.90;99.90
1359;DHT22;673;48.098;14.422;2023-05-19T07:20:48;11.20;99.90
1359;DHT22;673;48.098;14.422;2023-05-19T07:23:15;11.20;99.90
1359;DHT22;673;48.098;14.422;2023-05-19T07:25:42;11.40;99.90
1359;DHT22;673;48.098;14.422;2023-05-19T07:28:10;11.70;99.90
1359;DHT22;673;48.098;14.422;2023-05-19T07:30:38;11.60;99.90
1359;DHT22;673;48.098;14.422;2023-05-19T07:33:05;11.70;99.90
1359;DHT22;673;48.098;14.422;2023-05-19T07:35:32;11.50;99.90
1359;DHT22;673;48.098;14.422;2023-05-19T07:37:59;11.50;99.90
1359;DHT22;673;48.098;14.422;2023-05-19T07:40:26;11.40;99.90
1359;DHT22;673;48.098;14.422;2023-05-19T07:42:53;11.40;99.90
1359;DHT22;673;48.098;14.422;2023-05-19T07:45:22;11.50;99.90
1359;DHT22;673;48.098;14.422;2023-05-19T07:47:49;11.60;99.90
1359;DHT22;673;48.098;14.422;2023-05-19T07:50:17;11.70;99.90
1359;DHT22;673;48.098;14.422;2023-05-19T07:52:44;11.60;99.90
1359;DHT22;673;48.098;14.422;2023-05-19T07:55:11;11.80;99.90
1359;DHT22;673;48.098;14.422;2023-05-19T07:57:39;11.80;99.90
1359;DHT22;673;48.098;14.422;2023-05-19T08:00:07;12.10;99.90
1359;DHT22;673;48.098;14.422;2023-05-19T08:02:39;12.20;99.90
1359;DHT22;673;48.098;14.422;2023-05-19T08:05:08;12.10;99.90
1359;DHT22;673;48.098;14.422;2023-05-19T08:07:35;12.10;99.90
1359;DHT22;673;48.098;14.422;2023-05-19T08:10:02;12.10;99.90
1359;DHT22;673;48.098;14.422;2023-05-19T08:12:29;12.10;99.90
1359;DHT22;673;48.098;14.422;2023-05-19T08:14:56;12.30;99.90
1359;DHT22;673;48.098;14.422;2023-05-19T08:17:23;12.20;99.90
1359;DHT22;673;48.098;14.422;2023-05-19T08:19:52;12.30;99.90
1359;DHT22;673;48.098;14.422;2023-05-19T08:22:19;12.90;99.90
1359;DHT22;673;48.098;14.422;2023-05-19T08:24:46;13.00;99.90
1359;DHT22;673;48.098;14.422;2023-05-19T08:27:14;13.20;99.90
1359;DHT22;673;48.098;14.422;2023-05-19T08:29:41;13.40;99.90
1359;DHT22;673;48.098;14.422;2023-05-19T08:32:08;13.20;99.90
1359;DHT22;673;48.098;14.422;2023-05-19T08:34:35;13.30;99.90
1359;DHT22;673;48.098;14.422;2023-05-19T08:37:03;13.50;99.90
1359;DHT22;673;48.098;14.422;2023-05-19T08:39:30;13.60;99.90
1359;DHT22;673;48.098;14.422;2023-05-19T08:41:59;13.50;99.90
1359;DHT22;673;48.098;14.422;2023-05-19T08:44:26;13.50;99.90
1359;DHT22;673;48.098;14.422;2023-05-19T08:46:54;13.40;99.90
1359;DHT22;673;48.098;14.422;2023-05-19T08:49:24;13.20;99.90
1359;DHT22;673;48.098;14.422;2023-05-19T08:51:57;13.30;99.90
1359;DHT22;673;48.098;14.422;2023-05-19T08:54:32;13.10;99.90
1359;DHT22;673;48.098;14.422;2023-05-19T08:57:03;13.20;99.90
1359;DHT22;673;48.098;14.422;2023-05-19T08:59:30;13.30;99.90
1359;DHT22;673;48.098;14.422;2023-05-19T09:01:58;13.30;99.90
1359;DHT22;673;48.098;14.422;2023-05-19T09:04:25;13.90;99.90
1359;DHT22;673;48.098;14.422;2023-05-19T09:06:53;14.40;99.90
1359;DHT22;673;48.098;14.422;2023-05-19T09:09:21;14.70;99.90
1359;DHT22;673;48.098;14.422;2023-05-19T09:11:49;15.00;99.90
1359;DHT22;673;48.098;14.422;2023-05-19T09:14:16;15.20;99.90
1359;DHT22;673;48.098;14.422;2023-05-19T09:16:44;14.60;99.90
1359;DHT22;673;48.098;14.422;2023-05-19T09:19:15;14.50;99.90
1359;DHT22;673;48.098;14.422;2023-05-19T09:21:42;14.20;99.90
1359;DHT22;673;48.098;14.422;2023-05-19T09:24:10;14.20;99.90
1359;DHT22;673;48.098;14.422;2023-05-19T09:26:38;14.40;99.90
1359;DHT22;673;48.098;14.422;2023-05-19T09:29:16;14.50;99.90
1359;DHT22;673;48.098;14.422;2023-05-19T09:31:47;14.50;99.90
1359;DHT22;673;48.098;14.422;2023-05-19T09:34:16;14.60;99.90
1359;DHT22;673;48.098;14.422;2023-05-19T09:36:43;14.20;99.90
1359;DHT22;673;48.098;14.422;2023-05-19T09:39:13;14.10;99.90
1359;DHT22;673;48.098;14.422;2023-05-19T09:41:40;14.20;99.90
1359;DHT22;673;48.098;14.422;2023-05-19T09:44:11;14.50;99.90
1359;DHT22;673;48.098;14.422;2023-05-19T09:46:46;14.40;99.90
1359;DHT22;673;48.098;14.422;2023-05-19T09:49:18;14.40;99.90
1359;DHT22;673;48.098;14.422;2023-05-19T09:51:47;14.20;99.90
1359;DHT22;673;48.098;14.422;2023-05-19T09:54:15;14.70;99.90
1359;DHT22;673;48.098;14.422;2023-05-19T09:56:42;14.90;99.90
1359;DHT22;673;48.098;14.422;2023-05-19T09:59:09;14.90;99.90
1359;DHT22;673;48.098;14.422;2023-05-19T10:01:37;14.80;99.90
1359;DHT22;673;48.098;14.422;2023-05-19T10:04:07;14.80;99.90
1359;DHT22;673;48.098;14.422;2023-05-19T10:06:35;15.00;99.90
1359;DHT22;673;48.098;14.422;2023-05-19T10:09:02;14.80;99.90
1359;DHT22;673;48.098;14.422;2023-05-19T10:11:29;14.80;99.90
1359;DHT22;673;48.098;14.422;2023-05-19T10:13:57;15.10;99.90
1359;DHT22;673;48.098;14.422;2023-05-19T10:16:25;15.30;99.90
1359;DHT22;673;48.098;14.422;2023-05-19T10:18:54;15.30;99.90
1359;DHT22;673;48.098;14.422;2023-05-19T10:21:25;15.80;99.90
1359;DHT22;673;48.098;14.422;2023-05-19T10:23:52;16.40;99.90
1359;DHT22;673;48.098;14.422;2023-05-19T10:26:20;16.40;99.90
1359;DHT22;673;48.098;14.422;2023-05-19T10:28:48;16.20;99.90
1359;DHT22;673;48.098;14.422;2023-05-19T10:31:18;16.20;99.90
1359;DHT22;673;48.098;14.422;2023-05-19T10:34:00;15.90;99.90
1359;DHT22;673;48.098;14.422;2023-05-19T10:36:48;15.70;99.90
1359;DHT22;673;48.098;14.422;2023-05-19T10:39:17;16.70;99.90
1359;DHT22;673;48.098;14.422;2023-05-19T10:41:54;16.80;99.90
1359;DHT22;673;48.098;14.422;2023-05-19T10:44:34;16.70;99.90
1359;DHT22;673;48.098;14.422;2023-05-19T10:47:06;16.50;99.90
1359;DHT22;673;48.098;14.422;2023-05-19T10:49:34;17.10;99.90
1359;DHT22;673;48.098;14.422;2023-05-19T10:52:03;17.40;99.90
1359;DHT22;673;48.098;14.422;2023-05-19T10:54:44;17.00;99.90
1359;DHT22;673;48.098;14.422;2023-05-19T10:57:13;16.20;99.90
1359;DHT22;673;48.098;14.422;2023-05-19T10:59:41;16.40;99.90
1359;DHT22;673;48.098;14.422;2023-05-19T11:02:10;16.80;99.90
1359;DHT22;673;48.098;14.422;2023-05-19T11:05:06;17.30;99.90
1359;DHT22;673;48.098;14.422;2023-05-19T11:07:35;17.70;99.90
1359;DHT22;673;48.098;14.422;2023-05-19T11:10:06;17.20;99.90
1359;DHT22;673;48.098;14.422;2023-05-19T11:12:39;17.00;99.90
1359;DHT22;673;48.098;14.422;2023-05-19T11:15:10;16.80;99.90
1359;DHT22;673;48.098;14.422;2023-05-19T11:17:38;17.30;99.90
1359;DHT22;673;48.098;14.422;2023-05-19T11:20:07;17.40;99.90
1359;DHT22;673;48.098;14.422;2023-05-19T11:22:36;17.50;99.90
1359;DHT22;673;48.098;14.422;2023-05-19T11:25:06;17.70;99.90
1359;DHT22;673;48.098;14.422;2023-05-19T11:27:34;17.40;99.90
1359;DHT22;673;48.098;14.422;2023-05-19T11:30:08;17.40;99.90
1359;DHT22;673;48.098;14.422;2023-05-19T11:32:39;17.50;99.90
1359;DHT22;673;48.098;14.422;2023-05-19T11:35:08;17.40;99.90
1359;DHT22;673;48.098;14.422;2023-05-19T11:37:37;17.80;99.90
1359;DHT22;673;48.098;14.422;2023-05-19T11:40:06;17.90;99.90
1359;DHT22;673;48.098;14.422;2023-05-19T11:42:34;17.80;99.90
1359;DHT22;673;48.098;14.422;2023-05-19T11:45:02;17.80;99.90
1359;DHT22;673;48.098;14.422;2023-05-19T11:47:30;18.10;99.90
1359;DHT22;673;48.098;14.422;2023-05-19T11:49:58;18.40;99.90
1359;DHT22;673;48.098;14.422;2023-05-19T11:52:26;18.10;99.90
1359;DHT22;673;48.098;14.422;2023-05-19T11:54:54;18.30;99.90
1359;DHT22;673;48.098;14.422;2023-05-19T11:57:22;18.50;99.90
1359;DHT22;673;48.098;14.422;2023-05-19T11:59:49;18.50;99.90
1359;DHT22;673;48.098;14.422;2023-05-19T12:02:19;18.90;99.90
1359;DHT22;673;48.098;14.422;2023-05-19T12:04:46;19.00;99.90
1359;DHT22;673;48.098;14.422;2023-05-19T12:07:15;18.90;99.90
1359;DHT22;673;48.098;14.422;2023-05-19T12:09:43;18.90;99.90
1359;DHT22;673;48.098;14.422;2023-05-19T12:12:14;19.10;99.90
1359;DHT22;673;48.098;14.422;2023-05-19T12:14:41;19.20;99.90
1359;DHT22;673;48.098;14.422;2023-05-19T12:17:12;19.40;99.90
1359;DHT22;673;48.098;14.422;2023-05-19T12:19:42;19.30;99.90
1359;DHT22;673;48.098;14.422;2023-05-19T12:22:09;19.50;99.90
1359;DHT22;673;48.098;14.422;2023-05-19T12:24:37;20.10;99.90
1359;DHT22;673;48.098;14.422;2023-05-19T12:27:06;20.10;99.90
1359;DHT22;673;48.098;14.422;2023-05-19T12:29:37;20.10;99.90
1359;DHT22;673;48.098;14.422;2023-05-19T12:32:05;19.90;99.90
1359;DHT22;673;48.098;14.422;2023-05-19T12:34:35;19.60;99.90
1359;DHT22;673;48.098;14.422;2023-05-19T12:37:02;19.80;99.90
1359;DHT22;673;48.098;14.422;2023-05-19T12:39:29;19.60;99.90
1359;DHT22;673;48.098;14.422;2023-05-19T12:42:00;19.30;99.90
1359;DHT22;673;48.098;14.422;2023-05-19T12:44:28;19.40;99.90
1359;DHT22;673;48.098;14.422;2023-05-19T12:46:57;19.60;99.90
1359;DHT22;673;48.098;14.422;2023-05-19T12:49:25;19.90;99.90
1359;DHT22;673;48.098;14.422;2023-05-19T12:51:52;19.60;99.90
1359;DHT22;673;48.098;14.422;2023-05-19T12:54:19;20.10;99.90
1359;DHT22;673;48.098;14.422;2023-05-19T12:56:50;19.40;99.90
1359;DHT22;673;48.098;14.422;2023-05-19T12:59:21;19.20;99.90
1359;DHT22;673;48.098;14.422;2023-05-19T13:01:54;18.80;99.90
1359;DHT22;673;48.098;14.422;2023-05-19T13:04:23;18.80;99.90
1359;DHT22;673;48.098;14.422;2023-05-19T13:06:50;18.70;99.90
1359;DHT22;673;48.098;14.422;2023-05-19T13:09:18;18.50;99.90
1359;DHT22;673;48.098;14.422;2023-05-19T13:11:46;18.10;99.90
1359;DHT22;673;48.098;14.422;2023-05-19T13:14:15;17.90;99.90
1359;DHT22;673;48.098;14.422;2023-05-19T13:16:43;18.20;99.90
1359;DHT22;673;48.098;14.422;2023-05-19T13:19:11;18.10;99.90
1359;DHT22;673;48.098;14.422;2023-05-19T13:21:39;18.00;99.90
1359;DHT22;673;48.098;14.422;2023-05-19T13:24:06;18.20;99.90
1359;DHT22;673;48.098;14.422;2023-05-19T13:26:33;18.00;99.90
1359;DHT22;673;48.098;14.422;2023-05-19T13:29:01;18.30;99.90
1359;DHT22;673;48.098;14.422;2023-05-19T13:31:28;18.60;99.90
1359;DHT22;673;48.098;14.422;2023-05-19T13:33:55;18.70;99.90
1359;DHT22;673;48.098;14.422;2023-05-19T13:36:22;18.60;99.90
1359;DHT22;673;48.098;14.422;2023-05-19T13:38:51;18.40;99.90
1359;DHT22;673;48.098;14.422;2023-05-19T13:41:22;18.60;99.90
1359;DHT22;673;48.098;14.422;2023-05-19T13:43:49;18.50;99.90
1359;DHT22;673;48.098;14.422;2023-05-19T13:46:16;18.60;99.90
1359;DHT22;673;48.098;14.422;2023-05-19T13:48:43;18.40;99.90
1359;DHT22;673;48.098;14.422;2023-05-19T13:51:10;18.50;99.90
1359;DHT22;673;48.098;14.422;2023-05-19T13:53:38;18.40;99.90
1359;DHT22;673;48.098;14.422;2023-05-19T13:56:07;18.40;99.90
1359;DHT22;673;48.098;14.422;2023-05-19T13:58:34;18.40;99.90
1359;DHT22;673;48.098;14.422;2023-05-19T14:01:01;18.30;99.90
1359;DHT22;673;48.098;14.422;2023-05-19T14:03:28;18.20;99.90
1359;DHT22;673;48.098;14.422;2023-05-19T14:05:55;18.00;99.90
1359;DHT22;673;48.098;14.422;2023-05-19T14:08:22;18.00;99.90
1359;DHT22;673;48.098;14.422;2023-05-19T14:10:49;17.90;99.90
1359;DHT22;673;48.098;14.422;2023-05-19T14:13:18;18.00;99.90
1359;DHT22;673;48.098;14.422;2023-05-19T14:15:45;18.00;99.90
1359;DHT22;673;48.098;14.422;2023-05-19T14:18:13;18.10;99.90
1359;DHT22;673;48.098;14.422;2023-05-19T14:20:40;18.20;99.90
1359;DHT22;673;48.098;14.422;2023-05-19T14:23:07;18.30;99.90
1359;DHT22;673;48.098;14.422;2023-05-19T14:25:34;18.40;99.90
1359;DHT22;673;48.098;14.422;2023-05-19T14:28:01;18.30;99.90
1359;DHT22;673;48.098;14.422;2023-05-19T14:30:29;18.40;99.90
1359;DHT22;673;48.098;14.422;2023-05-19T14:32:56;18.60;99.90
1359;DHT22;673;48.098;14.422;2023-05-19T14:35:23;18.70;99.90
1359;DHT22;673;48.098;14.422;2023-05-19T14:37:50;18.60;99.90
1359;DHT22;673;48.098;14.422;2023-05-19T14:40:17;18.70;99.90
1359;DHT22;673;48.098;14.422;2023-05-19T14:42:44;18.70;99.90
1359;DHT22;673;48.098;14.422;2023-05-19T14:45:11;18.80;99.90
1359;DHT22;673;48.098;14.422;2023-05-19T14:47:40;18.90;99.90
1359;DHT22;673;48.098;14.422;2023-05-19T14:50:07;18.90;99.90
1359;DHT22;673;48.098;14.422;2023-05-19T14:52:34;19.30;99.90
1359;DHT22;673;48.098;14.422;2023-05-19T14:55:01;19.20;99.90
1359;DHT22;673;48.098;14.422;2023-05-19T14:57:28;19.10;99.90
1359;DHT22;673;48.098;14.422;2023-05-19T14:59:55;19.20;99.90
1359;DHT22;673;48.098;14.422;2023-05-19T15:02:22;19.40;99.90
1359;DHT22;673;48.098;14.422;2023-05-19T15:04:50;19.70;99.90
1359;DHT22;673;48.098;14.422;2023-05-19T15:07:17;19.70;99.90
1359;DHT22;673;48.098;14.422;2023-05-19T15:09:44;19.40;99.90
1359;DHT22;673;48.098;14.422;2023-05-19T15:12:11;19.30;99.90
1359;DHT22;673;48.098;14.422;2023-05-19T15:14:38;19.30;99.90
1359;DHT22;673;48.098;14.422;2023-05-19T15:17:05;19.20;99.90
1359;DHT22;673;48.098;14.422;2023-05-19T15:19:32;19.40;99.90
1359;DHT22;673;48.098;14.422;2023-05-19T15:22:00;19.40;99.90
1359;DHT22;673;48.098;14.422;2023-05-19T15:24:27;19.60;99.90
1359;DHT22;673;48.098;14.422;2023-05-19T15:26:54;19.80;99.90
1359;DHT22;673;48.098;14.422;2023-05-19T15:29:21;20.10;99.90
1359;DHT22;673;48.098;14.422;2023-05-19T15:31:49;20.10;99.90
1359;DHT22;673;48.098;14.422;2023-05-19T15:34:16;20.50;99.90
1359;DHT22;673;48.098;14.422;2023-05-19T15:36:43;20.40;99.90
1359;DHT22;673;48.098;14.422;2023-05-19T15:39:12;20.30;99.90
1359;DHT22;673;48.098;14.422;2023-05-19T15:41:39;20.10;99.90
1359;DHT22;673;48.098;14.422;2023-05-19T15:44:06;20.40;99.90
1359;DHT22;673;48.098;14.422;2023-05-19T15:46:33;20.50;99.90
1359;DHT22;673;48.098;14.422;2023-05-19T15:49:00;20.50;99.90
1359;DHT22;673;48.098;14.422;2023-05-19T15:51:27;20.60;99.90
1359;DHT22;673;48.098;14.422;2023-05-19T15:53:54;20.70;99.90
1359;DHT22;673;48.098;14.422;2023-05-19T15:56:22;20.60;99.90
1359;DHT22;673;48.098;14.422;2023-05-19T15:58:49;20.70;99.90
1359;DHT22;673;48.098;14.422;2023-05-19T16:01:17;20.30;99.90
1359;DHT22;673;48.098;14.422;2023-05-19T16:03:44;20.50;99.90
1359;DHT22;673;48.098;14.422;2023-05-19T16:06:11;20.60;99.90
1359;DHT22;673;48.098;14.422;2023-05-19T16:08:37;20.20;99.90
1359;DHT22;673;48.098;14.422;2023-05-19T16:11:05;20.00;99.90
1359;DHT22;673;48.098;14.422;2023-05-19T16:13:33;20.10;99.90
1359;DHT22;673;48.098;14.422;2023-05-19T16:16:00;20.70;99.90
1359;DHT22;673;48.098;14.422;2023-05-19T16:18:27;21.10;99.90